Parsons Landing, Santa Catalina Island Weather observations

Data are for 10 minute period ending at time listed.
 Day   Time   Solar   Ave.   Ave.  Ave.  Vector    Max.   Stn.   Total 
  of    of     Rad.   Air    Rel.  Wind   Wind     Wind   Baro. Precip. 
Year   Day            Temp.  Hum.  Speed  Dir.     Gust   Pres.         
2015   (PST)   W/m2    F      %     mph   deg.      mph    mb.    in.   
------------------------------------------------------------------------
 141    1:50    0.0    56   85.5    10    220.6    11.9    999.0   0.00  
 141    2:00    0.0    56   85.5     9    213.6    12.5    999.0   0.00  
 141    2:10    0.0    56   85.4     9    218.4    11.9    999.0   0.00  
 141    2:20    0.0    56   85.4     8    216.1    12.5    999.0   0.00  
 141    2:30    0.0    56   84.9     8    218.9    11.3    999.0   0.00  
 141    2:40    0.0    57   85.1     9    233.3    12.5    999.0   0.00  
 141    2:50    0.0    57   84.7     6    242.7     9.6    999.0   0.00  
 141    3:00    0.0    57   84.6     8    228.5    11.9    999.0   0.00  
 141    3:10    0.0    57   84.4     8    225.5    12.5    999.0   0.00  
 141    3:20    0.0    56   84.8     9    224.5    11.3    999.0   0.00  
 141    3:30    0.0    56   84.3     7    223.3    10.8    999.0   0.00  
 141    3:40    0.0    57   84.2     8    219.7    12.5    999.0   0.00  
 141    3:50    0.0    57   84.1     7    227.2    10.8    999.0   0.00  
 141    4:00    0.0    56   84.5     7    222.7    10.2    999.0   0.00  
 141    4:10    0.0    56   84.8     7    219.3    10.8    999.0   0.00  
 141    4:20    0.0    56   85.1     4    232.6     7.8    999.0   0.00  
 141    4:30    0.0    56   85.6     2    119.6     4.8    999.0   0.00  
 141    4:40    0.0    56   86.4     3    182.2     5.4    999.0   0.00  
 141    4:50    0.0    55   86.5     3    202.7     9.6    999.0   0.00  
 141    5:00    2.0    55   87.1     4    216.4     6.6    999.0   0.00  
 141    5:10    8.0    55   87.0     2    260.5     7.8    999.0   0.00  
 141    5:20   14.0    56   86.0     3    287.1     7.2    999.0   0.00  
 141    5:30   21.0    56   85.6     3    240.4     8.4    999.0   0.00  
 141    5:40   50.0    57   84.1     6    214.0     7.8    999.0   0.00  
 141    5:50   47.0    57   82.6     7    222.6    10.2    999.0   0.00  
 141    6:00   49.0    57   82.6     8    217.3    10.8    999.0   0.00  
 141    6:10   81.0    57   81.3     9    222.9    13.1    999.0   0.00  
 141    6:20  102.0    58   78.9    13    215.8    16.7    999.0   0.00  
 141    6:30  196.0    58   77.2     8    202.3    11.9    999.0   0.00  
 141    6:40  111.0    58   79.3    11    213.7    14.3    999.0   0.00  
 141    6:50  176.0    58   79.5    10    212.9    12.5    999.0   0.00  
 141    7:00  262.0    59   78.2    10    219.0    13.7    999.0   0.00  
 141    7:10  193.0    60   76.6     8    219.7    11.9    999.0   0.00  
 141    7:20  183.0    60   75.4     6    232.7     9.0    999.0   0.00  
 141    7:30   82.0    59   77.7     7    218.2    11.9    999.0   0.00  
 141    7:40   89.0    59   75.6     7    212.0    10.2    999.0   0.00  
 141    7:50  174.0    59   74.8     7    209.8     9.0    999.0   0.00  
 141    8:00  503.0    62   69.8     5    229.7     9.0    999.0   0.00  
 141    8:10  254.0    61   74.0     7    296.9    13.7    999.0   0.00  
 141    8:20  198.0    60   77.8     7    300.7    11.9    999.0   0.00  
 141    8:30  251.0    60   78.3     6    303.1    11.3    999.0   0.00  
 141    8:40  585.0    62   72.9     7    309.7    11.3    999.0   0.00  
 141    8:50  597.0    63   70.1     8    310.3    11.3    999.0   0.00  
 141    9:00  611.0    63   69.1     8    315.4    10.8    999.0   0.00  
 141    9:10  626.0    63   69.0     7    311.3    10.2    999.0   0.00  
 141    9:20  653.0    64   69.2     7    319.7    10.2    999.0   0.00  
 141    9:30  684.0    63   69.9     7    301.0    10.2    999.0   0.00  
 141    9:40  710.0    64   68.5     6    310.9    10.8    999.0   0.00  
 141    9:50  736.0    64   67.4     7    315.0    10.8    999.0   0.00  
 141   10:00  742.0    64   67.1     6    305.4    11.9    999.0   0.00  
 141   10:10  747.0    64   66.0     7    315.7    11.9    999.0   0.00  
 141   10:20  383.0    63   66.6     7    308.3    11.9    999.0   0.00  
 141   10:30  615.0    64   67.6     7    312.8    12.5    999.0   0.00  
 141   10:40  603.0    64   69.1     7    314.0    10.8    999.0   0.00  
 141   10:50  239.0    62   71.6     8    310.1    11.3    999.0   0.00  
 141   11:00  269.0    61   73.3     6    306.1    10.2    999.0   0.00  
 141   11:10  294.0    62   73.5     6    306.5     9.6    999.0   0.00  
 141   11:20  193.0    61   74.5     7    308.2    10.8    999.0   0.00  
 141   11:30  537.0    63   73.0     9    308.8    13.7    999.0   0.00  
 141   11:40  218.0    62   73.9     7    301.8    11.3    999.0   0.00  
 141   11:50  295.0    62   75.2     8    306.9    11.9    999.0   0.00  
 141   12:00  363.0    61   76.5     8    304.1    11.9    999.0   0.00  
 141   12:10  352.0    62   73.7     8    308.4    13.7    999.0   0.00  
 141   12:20  907.0    64   71.4     8    302.2    13.1    999.0   0.00  
 141   12:30  634.0    65   68.2     8    304.3    13.1    999.0   0.00  
 141   12:40  207.0    62   74.3     8    301.5    13.1    999.0   0.00  
 141   12:50  236.0    61   77.6     8    300.8    13.7    999.0   0.00  
 141   13:00  354.0    62   75.7     9    304.3    13.7    999.0   0.00  
 141   13:10  479.0    62   76.4     9    294.6    13.7    999.0   0.00  
 141   13:20  284.0    62   74.9     9    300.6    11.9    999.0   0.00  
 141   13:30  144.0    60   79.2     9    304.1    15.5    999.0   0.00  
 141   13:40  126.0    60   78.7     8    296.3    13.1    999.0   0.00  
 141   13:50  275.0    61   75.3    10    300.5    15.5    999.0   0.00  
 141   14:00  236.0    61   75.6     9    296.2    15.5    999.0   0.00  
 141   14:10  270.0    61   74.3    10    307.1    14.9    999.0   0.00  
 141   14:20  481.0    63   70.3     9    306.8    15.5    999.0   0.00  
 141   14:30  507.0    64   69.2    10    309.0    17.9    999.0   0.00  
 141   14:40  607.0    64   67.8    11    311.3    17.3    999.0   0.00  
 141   14:50  620.0    64   67.9    11    309.3    22.1    999.0   0.00  
 141   15:00  592.0    64   68.4    11    311.7    17.9    999.0   0.00  
 141   15:10  566.0    65   67.2    10    297.8    16.7    999.0   0.00  
 141   15:20  542.0    64   66.5    11    276.4    16.7    999.0   0.00  
 141   15:30  509.0    63   67.1    13    258.6    17.9    999.0   0.00  
 141   15:40  430.0    62   70.1    12    257.5    17.3    999.0   0.00  
 141   15:50  338.0    62   69.8    11    258.8    17.9    999.0   0.00  
 141   16:00  399.0    62   69.8    11    258.9    17.3    999.0   0.00  
 141   16:10  329.0    62   70.3    12    262.5    19.1    999.0   0.00  
 141   16:20  341.0    61   71.0    14    258.0    20.3    999.0   0.00  
 141   16:30  260.0    61   71.6    14    260.2    20.3    999.0   0.00  
 141   16:40  240.0    61   72.4    14    255.2    19.7    999.0   0.00  
 141   16:50  161.0    60   74.6    16    254.3    21.5    999.0   0.00  
 141   17:00  153.0    60   75.2    15    259.5    22.1    999.0   0.00  
 141   17:10   95.0    60   77.2    12    260.3    18.5    999.0   0.00  
 141   17:20  101.0    59   80.2    13    255.6    19.7    999.0   0.00  
 141   17:30   96.0    59   81.1    11    255.6    18.5    999.0   0.00  
 141   17:40  121.0    60   80.5    13    255.8    19.1    999.0   0.00  
 141   17:50  137.0    60   79.1     9    263.8    16.7    999.0   0.00  
 141   18:00   79.0    60   78.2    10    262.6    16.7    999.0   0.00  
 141   18:10   72.0    59   80.0    12    254.9    17.3    999.0   0.00  
 141   18:20   77.0    60   79.2    11    254.4    17.9    999.0   0.00  
 141   18:30   43.0    59   78.9    11    252.7    19.1    999.0   0.00  
 141   18:40   21.0    59   78.5    10    261.8    16.1    999.0   0.00  
 141   18:50   12.0    58   80.2    12    251.4    16.7    999.0   0.00  
 141   19:00    3.0    58   81.6    12    254.4    17.3    999.0   0.00  
 141   19:10    0.0    58   82.1    11    260.3    17.3    999.0   0.00  
 141   19:20    0.0    58   83.5    12    253.0    17.9    999.0   0.00  
 141   19:30    0.0    58   83.8    12    257.8    19.1    999.0   0.00  
 141   19:40    0.0    58   83.9    12    258.3    17.3    999.0   0.00  
 141   19:50    0.0    58   84.2    12    257.0    16.7    999.0   0.00  
 141   20:00    0.0    58   84.0    11    262.7    19.1    999.0   0.00  
 141   20:10    0.0    58   83.0    12    255.5    21.5    999.0   0.00  
 141   20:20    0.0    58   81.7    11    253.5    16.7    999.0   0.00  
 141   20:30    0.0    58   81.5    11    253.3    16.1    999.0   0.00  
 141   20:40    0.0    58   80.9    12    260.2    19.1    999.0   0.00  
 141   20:50    0.0    58   81.1    12    252.1    17.3    999.0   0.00  
 141   21:00    0.0    58   81.9    11    258.5    17.9    999.0   0.00  
 141   21:10    0.0    58   81.6    11    257.0    16.1    999.0   0.00  
 141   21:20    0.0    58   81.2    12    256.0    19.1    999.0   0.00  
 141   21:30    0.0    58   80.6    12    254.3    19.1    999.0   0.00  
 141   21:40    0.0    58   81.0    11    257.9    17.3    999.0   0.00  
 141   21:50    0.0    58   81.4    10    258.5    16.1    999.0   0.00  
 141   22:00    0.0    58   81.8    11    252.5    16.7    999.0   0.00  
 141   22:10    0.0    58   81.8    11    251.1    16.7    999.0   0.00  
 141   22:20    0.0    58   82.4    10    270.8    16.1    999.0   0.00  
 141   22:30    0.0    58   82.8     8    259.3    13.1    999.0   0.00  
 141   22:40    0.0    58   82.6    10    248.5    16.1    999.0   0.00  
 141   22:50    0.0    58   83.4    10    252.3    13.7    999.0   0.00  
 141   23:00    0.0    58   84.1    10    255.0    15.5    999.0   0.00  
 141   23:10    0.0    58   84.2    11    249.8    15.5    999.0   0.00  
 141   23:20    0.0    58   84.3    11    260.1    17.3    999.0   0.00  
 141   23:30    0.0    58   83.6    11    254.6    15.5    999.0   0.00  
 141   23:40    0.0    58   83.4    11    250.8    16.7    999.0   0.00  
 141   23:50    0.0    58   83.2     9    252.0    13.7    999.0   0.00  
 142    0:00    0.0    58   83.0    10    250.3    14.3    999.0   0.00  
 142    0:10    0.0    58   82.8     9    253.1    12.5    999.0   0.00  
 142    0:20    0.0    58   82.1    10    252.1    14.9    999.0   0.00  
 142    0:30    0.0    58   81.3    11    261.6    17.9    999.0   0.00  
 142    0:40    0.0    58   81.2    11    258.0    17.9    999.0   0.00  
 142    0:50    0.0    58   81.9    10    262.8    17.3    999.0   0.00  
 142    1:00    0.0    58   83.4    10    253.8    14.9    999.0   0.00  
 142    1:10    0.0    57   83.6    12    251.3    17.3    999.0   0.00  
 142    1:20    0.0    57   83.5    12    255.0    16.7    999.0   0.00  
 142    1:30    0.0    58   83.9    13    252.8    18.5    999.0   0.00  
 142    1:40    0.0    57   84.1    11    256.0    17.9    999.0   0.00  

Return to Parsons Landing graphs page.


Western Regional Climate Center,wrcc@dri.edu